Time;durP1;ratioP1;P1;durP2;ratioP2;P2;SDS_P1;SDS_P2;PMS_P1;PMS_P2;Temp;Humidity;BMP_temperature;BMP_pressure;BME280_temperature;BME280_humidity;BME280_pressure;Samples;Min_cycle;Max_cycle;Signal;HPM_P1;HPM_P2
2024/04/08 00:00:18;;;;;;;4.80;2.60;;;;;;;19.33;58.03;156332.56;4996937;28;20257;-87
2024/04/08 00:02:51;;;;;;;4.03;2.27;;;;;;;19.33;58.44;156332.56;4991847;28;20534;-87
2024/04/08 00:05:16;;;;;;;11.23;3.37;;;;;;;19.30;55.43;156324.75;5008818;28;21410;-87
2024/04/08 00:07:44;;;;;;;7.00;2.90;;;;;;;19.33;52.69;156332.56;5017191;28;20447;-87
2024/04/08 00:10:10;;;;;;;7.37;3.70;;;;;;;19.43;53.32;156357.41;5011396;28;20460;-87
2024/04/08 00:12:38;;;;;;;7.30;2.73;;;;;;;19.56;58.04;156390.00;5028038;28;20439;-87
2024/04/08 00:15:06;;;;;;;6.77;2.83;;;;;;;19.49;59.49;156371.72;5025481;28;20211;-87
2024/04/08 00:17:34;;;;;;;8.40;3.20;;;;;;;19.33;57.71;156332.56;5028728;28;20448;-88
2024/04/08 00:20:01;;;;;;;5.00;2.50;;;;;;;19.27;58.58;156315.66;5006665;28;20533;-87
2024/04/08 00:22:27;;;;;;;7.63;2.40;;;;;;;19.22;59.30;156302.63;5010680;28;20508;-87
2024/04/08 00:24:53;;;;;;;5.70;2.53;;;;;;;19.17;58.21;156289.53;5009150;28;20549;-87
2024/04/08 00:27:20;;;;;;;6.93;2.63;;;;;;;19.15;55.87;156285.66;5028787;28;20448;-87
2024/04/08 00:29:45;;;;;;;5.60;3.43;;;;;;;19.20;59.59;156298.69;5011601;28;20238;-87
2024/04/08 00:32:14;;;;;;;3.20;2.33;;;;;;;19.14;57.83;156281.78;5029008;28;20439;-87
2024/04/08 00:34:40;;;;;;;11.53;2.77;;;;;;;19.05;58.93;156259.59;5026479;28;20268;-88
2024/04/08 00:37:07;;;;;;;5.60;2.90;;;;;;;19.02;59.84;156250.47;5027592;28;20452;-87
2024/04/08 00:39:33;;;;;;;7.27;2.93;;;;;;;19.01;61.01;156247.91;5028277;28;20459;-87
2024/04/08 00:42:00;;;;;;;3.73;2.40;;;;;;;18.94;57.28;156230.94;5015852;28;20558;-87
2024/04/08 00:44:25;;;;;;;4.10;2.20;;;;;;;18.93;58.33;156228.31;5015583;28;20218;-87
2024/04/08 00:46:52;;;;;;;4.30;3.10;;;;;;;18.90;56.70;156220.53;5027406;28;20866;-87
2024/04/08 00:49:20;;;;;;;6.83;2.53;;;;;;;18.93;57.89;156228.31;5027479;28;20238;-87
2024/04/08 00:51:46;;;;;;;5.93;2.70;;;;;;;18.94;56.73;156229.63;5028578;28;20809;-87
2024/04/08 00:54:12;;;;;;;6.97;2.60;;;;;;;18.98;60.13;156241.38;5011088;28;20498;-87
2024/04/08 00:56:39;;;;;;;8.37;2.83;;;;;;;18.99;65.20;156243.97;5026644;28;20447;-87
2024/04/08 00:59:06;;;;;;;6.60;3.70;;;;;;;18.90;64.29;156220.53;5021066;28;20234;-87
2024/04/08 01:01:33;;;;;;;6.17;2.27;;;;;;;18.82;63.76;156200.94;5028522;28;20858;-87
2024/04/08 01:03:58;;;;;;;13.30;3.13;;;;;;;18.75;61.97;156181.41;5027408;28;20451;-87
2024/04/08 01:06:26;;;;;;;6.80;2.43;;;;;;;18.78;61.17;156190.53;5024640;28;20533;-87
2024/04/08 01:08:52;;;;;;;4.60;2.33;;;;;;;18.76;62.83;156185.34;5024285;28;20264;-87
2024/04/08 01:11:18;;;;;;;6.70;2.47;;;;;;;18.70;56.84;156169.69;5027640;28;20834;-87
2024/04/08 01:13:46;;;;;;;5.53;2.20;;;;;;;18.73;54.87;156176.22;5027891;28;20682;-87
2024/04/08 01:16:12;;;;;;;3.60;2.53;;;;;;;18.76;55.67;156185.34;5022801;28;20458;-87
2024/04/08 01:18:38;;;;;;;6.70;2.53;;;;;;;18.76;56.31;156184.03;5028419;28;20456;-87
2024/04/08 01:21:04;;;;;;;3.23;2.57;;;;;;;18.80;61.02;156194.44;5027976;28;20443;-87
2024/04/08 01:23:36;;;;;;;8.20;2.63;;;;;;;18.73;60.48;156177.53;5025616;28;20606;-86
2024/04/08 01:26:03;;;;;;;5.50;3.10;;;;;;;18.68;56.99;156164.50;5012726;28;20456;-87
2024/04/08 01:28:28;;;;;;;7.10;2.83;;;;;;;18.65;56.58;156155.38;5027748;28;20444;-87
2024/04/08 01:30:59;;;;;;;4.00;2.53;;;;;;;18.70;62.30;156168.38;5028033;28;20513;-86
2024/04/08 01:33:25;;;;;;;12.60;3.37;;;;;;;18.60;57.92;156142.34;5023111;28;20232;-86
2024/04/08 01:35:53;;;;;;;5.70;2.50;;;;;;;18.60;58.80;156143.66;5009366;28;21049;-88
2024/04/08 01:38:18;;;;;;;6.20;2.60;;;;;;;18.56;58.26;156131.94;5027877;28;20238;-85
2024/04/08 01:40:46;;;;;;;6.63;2.80;;;;;;;18.54;59.91;156126.69;5027411;28;20518;-86
2024/04/08 01:43:12;;;;;;;12.20;3.00;;;;;;;18.52;63.36;156121.50;5018527;28;20516;-86
2024/04/08 01:45:39;;;;;;;5.10;3.50;;;;;;;18.49;64.67;156113.66;5017825;28;20851;-86
2024/04/08 01:48:05;;;;;;;5.50;2.47;;;;;;;18.44;64.44;156101.91;5028260;28;20263;-86
2024/04/08 01:50:32;;;;;;;6.70;2.77;;;;;;;18.41;65.25;156094.09;5010860;28;20455;-86
2024/04/08 01:52:58;;;;;;;9.70;3.20;;;;;;;18.38;66.33;156084.97;5014387;28;20447;-86
2024/04/08 01:55:25;;;;;;;6.90;2.80;;;;;;;18.30;63.06;156064.13;5027867;28;20506;-86
2024/04/08 01:57:52;;;;;;;3.90;2.30;;;;;;;18.27;65.27;156058.91;5028109;28;20716;-86
2024/04/08 02:00:19;;;;;;;6.70;3.00;;;;;;;18.23;65.01;156047.22;5027065;28;20455;-86
2024/04/08 02:02:44;;;;;;;3.80;2.63;;;;;;;18.20;63.58;156039.38;5013488;28;20877;-86
2024/04/08 02:05:11;;;;;;;5.17;2.83;;;;;;;18.19;63.76;156036.75;5027866;28;20478;-86
2024/04/08 02:07:38;;;;;;;8.37;2.90;;;;;;;18.16;63.34;156030.25;5027655;28;20634;-86
2024/04/08 02:10:05;;;;;;;5.07;2.37;;;;;;;18.18;66.98;156035.50;5009179;28;20533;-86
2024/04/08 02:12:30;;;;;;;7.50;2.90;;;;;;;18.17;67.13;156032.88;5006779;28;20431;-86
2024/04/08 02:14:58;;;;;;;7.90;2.90;;;;;;;18.17;66.40;156032.88;5009415;28;20525;-86
2024/04/08 02:17:24;;;;;;;11.10;3.47;;;;;;;18.18;67.64;156035.50;5027369;28;20216;-86
2024/04/08 02:19:50;;;;;;;5.40;2.60;;;;;;;18.20;67.48;156039.38;5011384;28;20825;-86
2024/04/08 02:22:16;;;;;;;6.40;2.70;;;;;;;18.17;64.62;156032.88;5026259;28;20265;-86
2024/04/08 02:24:43;;;;;;;8.50;3.90;;;;;;;18.12;63.06;156019.88;5009899;28;20491;-86
2024/04/08 02:27:08;;;;;;;5.37;2.40;;;;;;;18.13;63.49;156022.50;5007930;28;20206;-86
2024/04/08 02:29:35;;;;;;;5.10;2.97;;;;;;;18.16;66.30;156030.25;5006282;28;20878;-85
2024/04/08 02:32:02;;;;;;;7.10;2.70;;;;;;;18.11;63.93;156017.25;5020302;28;20207;-85
2024/04/08 02:34:28;;;;;;;5.97;2.80;;;;;;;18.10;65.06;156014.66;5012852;28;20849;-86
2024/04/08 02:36:54;;;;;;;4.80;2.30;;;;;;;18.12;66.79;156019.88;5009677;28;20495;-86
2024/04/08 02:39:20;;;;;;;8.73;3.73;;;;;;;18.10;69.03;156014.66;5046658;28;20533;-86
2024/04/08 02:41:46;;;;;;;5.63;3.33;;;;;;;18.03;68.14;155995.16;5032112;28;20211;-86
2024/04/08 02:44:13;;;;;;;6.80;2.93;;;;;;;18.03;68.54;155996.41;5029859;28;20914;-86
2024/04/08 02:46:38;;;;;;;4.50;2.13;;;;;;;18.03;67.93;155996.41;5025297;28;20697;-86
2024/04/08 02:49:06;;;;;;;3.70;2.57;;;;;;;18.00;66.76;155988.59;4992781;28;20514;-86
2024/04/08 02:51:32;;;;;;;7.43;2.70;;;;;;;17.99;66.49;155986.00;5023562;28;20305;-86
2024/04/08 02:53:58;;;;;;;8.33;3.00;;;;;;;17.93;65.24;155970.38;5009585;28;20551;-86
2024/04/08 02:56:24;;;;;;;7.43;2.40;;;;;;;17.87;63.42;155954.72;5014634;28;20780;-86
2024/04/08 02:58:51;;;;;;;7.30;2.60;;;;;;;17.83;63.46;155943.03;5030929;28;20447;-87
2024/04/08 03:01:16;;;;;;;6.33;2.60;;;;;;;17.82;65.12;155940.44;5031428;28;20210;-86
2024/04/08 03:03:43;;;;;;;7.30;2.60;;;;;;;17.75;64.02;155922.19;5009316;28;20926;-86
2024/04/08 03:06:11;;;;;;;7.83;2.70;;;;;;;17.66;63.74;155898.78;5013734;28;20210;-87
2024/04/08 03:08:37;;;;;;;5.00;2.20;;;;;;;17.61;64.68;155887.03;5024645;28;21171;-87
2024/04/08 03:11:03;;;;;;;12.03;2.63;;;;;;;17.53;64.68;155867.53;5029393;28;20455;-87
2024/04/08 03:13:30;;;;;;;6.30;3.43;;;;;;;17.47;65.66;155851.84;5022126;28;20500;-86
2024/04/08 03:15:56;;;;;;;4.23;2.50;;;;;;;17.43;65.97;155840.13;5029875;28;20475;-86
2024/04/08 03:18:22;;;;;;;7.17;2.43;;;;;;;17.37;64.08;155825.81;5010193;28;20558;-87
2024/04/08 03:20:54;;;;;;;6.40;2.63;;;;;;;17.40;65.73;155833.63;5009830;28;20432;-86
2024/04/08 03:23:22;;;;;;;7.70;3.00;;;;;;;17.38;66.06;155828.44;5021615;28;20549;-86
2024/04/08 03:25:56;;;;;;;7.57;2.83;;;;;;;17.32;63.65;155812.81;5029166;28;20454;-87
2024/04/08 03:28:22;;;;;;;8.83;2.77;;;;;;;17.33;64.81;155814.13;5025004;28;20459;-87
2024/04/08 03:30:49;;;;;;;4.03;2.33;;;;;;;17.31;64.23;155808.91;5032046;28;20482;-87
2024/04/08 03:33:16;;;;;;;6.17;2.63;;;;;;;17.35;67.91;155819.31;5030195;28;20931;-87
2024/04/08 03:35:42;;;;;;;7.40;2.73;;;;;;;17.34;68.04;155818.00;5030218;28;20471;-87
2024/04/08 03:38:08;;;;;;;5.37;2.90;;;;;;;17.30;66.74;155807.63;5015341;28;20828;-86
2024/04/08 03:40:36;;;;;;;7.47;2.43;;;;;;;17.28;66.70;155802.41;5029961;28;20261;-86
2024/04/08 03:43:02;;;;;;;6.53;2.73;;;;;;;17.29;68.89;155803.72;5011331;28;20522;-86
2024/04/08 03:45:29;;;;;;;6.17;2.97;;;;;;;17.24;68.07;155790.66;5010059;28;20448;-87
2024/04/08 03:47:54;;;;;;;10.43;3.03;;;;;;;17.21;67.94;155782.91;5014439;28;20450;-86
2024/04/08 03:50:21;;;;;;;7.57;2.90;;;;;;;17.16;67.42;155769.84;5029006;28;20451;-87
2024/04/08 03:52:48;;;;;;;7.07;3.00;;;;;;;17.13;66.97;155763.34;5030414;28;20197;-86
2024/04/08 03:55:16;;;;;;;10.63;3.57;;;;;;;17.11;67.71;155756.84;5026803;28;21012;-86
2024/04/08 03:57:44;;;;;;;5.73;2.73;;;;;;;17.10;68.95;155755.56;5017295;28;20448;-86
2024/04/08 04:00:11;;;;;;;8.80;3.17;;;;;;;17.10;69.33;155754.25;5029279;28;20443;-86
2024/04/08 04:02:38;;;;;;;8.90;3.70;;;;;;;17.05;68.95;155743.81;5021674;28;20476;-87
2024/04/08 04:05:05;;;;;;;5.37;3.00;;;;;;;17.01;68.32;155733.44;5027275;28;20471;-87
2024/04/08 04:07:30;;;;;;;9.40;3.03;;;;;;;16.98;68.58;155725.63;5012631;28;20487;-86
2024/04/08 04:10:04;;;;;;;4.73;2.70;;;;;;;16.94;67.71;155715.19;5012561;28;20545;-86
2024/04/08 04:12:30;;;;;;;8.27;3.17;;;;;;;16.93;70.40;155712.63;5031082;28;20191;-87
2024/04/08 04:14:58;;;;;;;7.93;2.80;;;;;;;16.93;71.29;155711.31;5013053;28;20465;-87
2024/04/08 04:17:23;;;;;;;8.30;2.63;;;;;;;16.82;67.54;155682.69;5012963;28;20238;-87
2024/04/08 04:19:53;;;;;;;4.50;2.80;;;;;;;16.80;68.67;155677.47;5018872;28;20609;-87
2024/04/08 04:22:18;;;;;;;8.80;3.17;;;;;;;16.76;67.81;155667.09;5017850;28;20231;-87
2024/04/08 04:24:45;;;;;;;7.83;3.37;;;;;;;16.74;68.88;155663.16;5012818;28;21004;-87
2024/04/08 04:27:11;;;;;;;8.83;2.97;;;;;;;16.73;69.35;155660.53;5028974;28;20211;-87
2024/04/08 04:29:37;;;;;;;2.80;2.30;;;;;;;16.77;69.63;155669.66;5027208;28;20825;-87
2024/04/08 04:32:04;;;;;;;5.10;2.40;;;;;;;16.74;68.46;155661.88;5029439;28;20210;-87
2024/04/08 04:34:31;;;;;;;5.80;2.93;;;;;;;16.71;67.59;155654.03;5031103;28;20521;-87
2024/04/08 04:36:56;;;;;;;5.70;2.80;;;;;;;16.65;67.84;155639.78;5023506;28;20467;-87
2024/04/08 04:39:23;;;;;;;3.97;2.93;;;;;;;16.61;67.93;155629.34;5027119;28;20463;-88
2024/04/08 04:41:49;;;;;;;4.20;2.80;;;;;;;16.61;68.79;155628.03;5022740;28;20218;-87
2024/04/08 04:44:16;;;;;;;5.47;2.67;;;;;;;16.58;68.68;155621.53;5027873;28;20487;-87
2024/04/08 04:46:41;;;;;;;8.50;2.90;;;;;;;16.60;68.72;155625.47;5030720;28;20432;-87
2024/04/08 04:49:09;;;;;;;9.47;2.90;;;;;;;16.61;67.54;155628.03;5030787;28;20966;-87
2024/04/08 04:51:35;;;;;;;15.03;3.10;;;;;;;16.62;67.38;155631.97;5018859;28;20685;-87
2024/04/08 04:54:01;;;;;;;7.57;2.97;;;;;;;16.61;67.62;155628.03;5020712;28;20488;-87
2024/04/08 04:56:27;;;;;;;5.30;2.67;;;;;;;16.64;68.16;155635.84;5014038;28;20210;-87
2024/04/08 04:58:54;;;;;;;5.60;2.50;;;;;;;16.66;68.40;155642.34;5030322;28;20447;-87
2024/04/08 05:01:19;;;;;;;6.87;2.57;;;;;;;16.66;68.59;155642.34;5025569;28;20210;-86
2024/04/08 05:03:46;;;;;;;3.87;2.57;;;;;;;16.70;69.90;155652.78;5027459;28;20565;-86
2024/04/08 05:06:14;;;;;;;4.77;2.63;;;;;;;16.71;67.68;155655.34;5025735;28;20444;-87
2024/04/08 05:08:40;;;;;;;5.53;2.63;;;;;;;16.75;67.27;155665.78;5026015;28;20448;-86
2024/04/08 05:11:06;;;;;;;7.20;3.20;;;;;;;16.81;65.77;155681.38;5021060;28;20477;-86
2024/04/08 05:13:32;;;;;;;10.67;3.07;;;;;;;16.81;64.23;155681.38;5024554;28;20544;-86
2024/04/08 05:15:59;;;;;;;7.10;3.70;;;;;;;16.89;68.80;155702.19;5005944;28;20682;-87
2024/04/08 05:18:28;;;;;;;4.30;2.53;;;;;;;16.90;70.90;155704.81;5026852;28;20498;-86
2024/04/08 05:20:55;;;;;;;8.00;3.10;;;;;;;16.82;70.93;155684.00;5026195;28;20454;-87
2024/04/08 05:23:25;;;;;;;6.53;3.57;;;;;;;16.75;70.26;155664.47;5023666;28;20857;-87
2024/04/08 05:25:51;;;;;;;7.50;3.57;;;;;;;16.73;69.55;155660.53;5022113;28;20639;-88
2024/04/08 05:28:18;;;;;;;6.57;3.43;;;;;;;16.71;69.27;155654.03;5006066;28;20979;-87
2024/04/08 05:30:44;;;;;;;12.20;3.40;;;;;;;16.67;69.06;155643.66;5022436;28;20554;-87
2024/04/08 05:33:11;;;;;;;6.90;3.13;;;;;;;16.65;70.72;155638.47;5008783;28;20535;-88
2024/04/08 05:35:37;;;;;;;6.50;3.17;;;;;;;16.61;70.02;155629.34;5021320;28;20494;-88
2024/04/08 05:38:04;;;;;;;9.10;3.00;;;;;;;16.65;71.93;155638.47;5023611;28;20499;-87
2024/04/08 05:40:34;;;;;;;5.57;2.97;;;;;;;16.71;73.61;155655.34;5007482;28;20238;-88
2024/04/08 05:43:00;;;;;;;6.70;3.20;;;;;;;16.71;71.40;155655.34;5025745;28;20480;-88
2024/04/08 05:45:26;;;;;;;4.27;2.90;;;;;;;16.81;74.09;155680.09;4986552;28;20445;-87
2024/04/08 05:47:54;;;;;;;7.53;3.10;;;;;;;16.85;73.37;155691.81;5007081;28;20955;-87
2024/04/08 05:50:20;;;;;;;8.73;3.03;;;;;;;16.87;70.75;155697.00;5021515;28;20214;-85
2024/04/08 05:52:47;;;;;;;10.00;3.43;;;;;;;16.92;69.99;155710.00;5026803;28;20462;-85
2024/04/08 05:55:13;;;;;;;3.27;2.73;;;;;;;17.01;70.67;155733.44;4991922;28;20673;-85
2024/04/08 05:57:40;;;;;;;6.70;2.97;;;;;;;17.14;72.81;155765.97;5008486;28;20511;-85
2024/04/08 06:00:07;;;;;;;6.73;2.83;;;;;;;17.21;70.63;155784.16;5023605;28;20215;-85
2024/04/08 06:02:33;;;;;;;6.83;2.80;;;;;;;17.36;72.58;155823.25;5022244;28;20479;-85
2024/04/08 06:04:59;;;;;;;10.70;3.17;;;;;;;17.42;74.89;155837.56;5025372;28;20865;-84
2024/04/08 06:07:26;;;;;;;5.10;3.20;;;;;;;17.44;71.93;155842.75;5023403;28;20466;-84
2024/04/08 06:10:44;;;;;;;8.50;3.23;;;;;;;17.56;70.69;155874.03;5021511;28;20242;-85
2024/04/08 06:13:13;;;;;;;7.47;3.07;;;;;;;17.78;72.25;155931.31;4988589;28;21009;-86
2024/04/08 06:15:38;;;;;;;7.07;3.80;;;;;;;17.93;73.68;155969.06;5025887;28;20569;-84
2024/04/08 06:18:05;;;;;;;7.37;3.37;;;;;;;18.01;72.92;155991.22;5005504;28;20534;-85
2024/04/08 06:20:36;;;;;;;9.53;3.10;;;;;;;18.14;72.93;156025.06;5023278;28;20694;-85
2024/04/08 06:23:03;;;;;;;6.20;2.97;;;;;;;18.25;70.92;156053.72;5025750;28;20908;-84
2024/04/08 06:25:56;;;;;;;6.43;5.30;;;;;;;18.39;71.41;156088.88;5006640;28;20822;-85
2024/04/08 06:28:24;;;;;;;6.40;3.00;;;;;;;18.48;69.38;156111.09;5023202;28;20456;-84
2024/04/08 06:30:50;;;;;;;8.80;3.13;;;;;;;18.61;68.24;156144.97;5024821;28;20515;-84
2024/04/08 06:33:16;;;;;;;5.00;3.00;;;;;;;18.77;71.91;156186.66;5026475;28;20540;-84
2024/04/08 06:35:43;;;;;;;8.23;3.43;;;;;;;18.84;70.43;156204.88;5000805;28;20210;-84
2024/04/08 06:38:10;;;;;;;5.80;3.00;;;;;;;19.00;70.23;156245.28;5024147;28;20454;-84
2024/04/08 06:40:39;;;;;;;6.80;3.13;;;;;;;19.10;64.53;156271.31;5007414;28;20455;-81
2024/04/08 06:43:06;;;;;;;6.57;3.33;;;;;;;19.27;66.23;156315.66;5025460;28;21061;-84
2024/04/08 06:45:33;;;;;;;9.50;3.60;;;;;;;19.46;64.04;156363.94;5021324;28;20451;-83
2024/04/08 06:47:59;;;;;;;5.40;3.10;;;;;;;19.64;64.62;156410.84;5025026;28;20455;-84
2024/04/08 06:50:25;;;;;;;10.30;2.97;;;;;;;19.83;65.61;156460.41;5023066;28;20455;-84
2024/04/08 06:52:51;;;;;;;7.10;3.60;;;;;;;19.90;65.16;156478.66;5022946;28;20459;-84
2024/04/08 06:55:18;;;;;;;7.70;3.00;;;;;;;19.96;64.37;156495.56;5005131;28;20284;-84
2024/04/08 06:57:44;;;;;;;6.53;3.50;;;;;;;20.08;64.40;156524.25;5025473;28;20925;-85
2024/04/08 07:00:11;;;;;;;5.13;3.27;;;;;;;20.16;60.87;156546.44;5023310;28;20491;-85
2024/04/08 07:02:39;;;;;;;8.93;3.77;;;;;;;20.41;61.32;156610.44;5023032;28;20452;-85
2024/04/08 07:05:04;;;;;;;5.13;2.80;;;;;;;20.50;61.35;156635.19;5026032;28;20460;-85
2024/04/08 07:07:31;;;;;;;13.60;3.40;;;;;;;20.63;60.53;156669.09;5024398;28;20447;-84
2024/04/08 07:09:56;;;;;;;7.50;3.30;;;;;;;20.74;60.33;156695.19;5025307;28;20257;-84
2024/04/08 07:12:23;;;;;;;8.87;3.87;;;;;;;20.90;58.04;156736.94;5025757;28;20470;-84
2024/04/08 07:14:50;;;;;;;9.07;3.17;;;;;;;21.11;58.11;156793.13;5027700;28;20273;-84
2024/04/08 07:17:17;;;;;;;7.13;3.37;;;;;;;21.20;59.12;156816.63;5008783;28;20491;-84
2024/04/08 07:19:45;;;;;;;7.27;3.40;;;;;;;21.32;57.53;156845.31;5008597;28;20637;-84
2024/04/08 07:22:11;;;;;;;8.73;3.30;;;;;;;21.38;55.58;156862.28;5026333;28;20458;-84
2024/04/08 07:24:37;;;;;;;11.07;3.60;;;;;;;21.66;59.82;156935.38;5028590;28;20475;-84
2024/04/08 07:27:05;;;;;;;13.03;3.33;;;;;;;21.80;54.04;156971.94;5020928;28;20466;-84
2024/04/08 07:29:30;;;;;;;5.43;3.20;;;;;;;21.98;52.33;157016.38;5008756;28;20249;-84
2024/04/08 07:33:34;;;;;;;6.97;3.40;;;;;;;22.30;51.12;157099.94;5478467;25;21194;-85
2024/04/08 07:36:00;;;;;;;10.57;3.23;;;;;;;22.48;50.26;157146.97;5473504;26;20552;-84
2024/04/08 07:38:28;;;;;;;5.33;2.87;;;;;;;22.58;48.31;157173.13;5469186;26;20526;-85
2024/04/08 07:40:53;;;;;;;8.50;3.00;;;;;;;22.76;49.84;157220.22;5476808;26;20283;-84
2024/04/08 07:43:22;;;;;;;14.53;3.07;;;;;;;22.88;51.29;157251.53;5477266;25;20973;-85
2024/04/08 07:45:47;;;;;;;9.03;3.20;;;;;;;23.07;54.45;157298.56;5476635;26;20247;-84
2024/04/08 07:48:19;;;;;;;7.60;2.70;;;;;;;23.07;46.28;157299.88;5472179;25;20526;-85
2024/04/08 07:50:48;;;;;;;6.70;3.00;;;;;;;23.23;47.79;157341.72;5478038;26;20380;-85
2024/04/08 07:53:16;;;;;;;6.33;2.90;;;;;;;23.36;48.66;157375.69;5500739;25;20565;-84
2024/04/08 07:55:43;;;;;;;10.73;3.47;;;;;;;23.44;48.71;157396.66;5477555;26;20449;-84
2024/04/08 07:58:11;;;;;;;5.77;3.47;;;;;;;23.51;48.22;157414.94;5444225;26;20517;-84
2024/04/08 08:00:37;;;;;;;8.17;3.20;;;;;;;23.60;47.32;157437.16;5475971;26;20995;-84
2024/04/08 08:03:05;;;;;;;6.10;2.50;;;;;;;23.78;47.30;157484.22;5476295;26;20519;-85
2024/04/08 08:05:31;;;;;;;9.73;3.30;;;;;;;23.93;45.67;157522.16;5473786;25;20282;-84
2024/04/08 08:08:02;;;;;;;8.07;2.90;;;;;;;24.03;50.01;157548.31;5472005;25;21011;-86
2024/04/08 08:10:30;;;;;;;6.50;3.30;;;;;;;24.00;47.97;157541.78;5471533;26;20249;-84
2024/04/08 08:12:58;;;;;;;6.20;2.70;;;;;;;24.11;48.60;157570.59;5475602;25;21036;-85
2024/04/08 08:15:24;;;;;;;10.10;3.10;;;;;;;24.13;45.84;157575.81;5424838;26;20478;-83
2024/04/08 08:17:54;;;;;;;7.03;3.13;;;;;;;24.29;46.09;157616.34;5475892;26;20517;-84
2024/04/08 08:20:22;;;;;;;15.23;3.37;;;;;;;24.38;47.35;157638.59;5471381;26;21251;-84
2024/04/08 08:22:56;;;;;;;7.50;3.07;;;;;;;24.39;46.58;157641.19;5498469;25;20469;-84
2024/04/08 08:25:27;;;;;;;12.17;3.67;;;;;;;24.50;49.05;157671.28;5468880;26;20513;-84
2024/04/08 08:27:56;;;;;;;5.00;2.77;;;;;;;24.49;45.40;157668.66;5475362;26;20478;-84
2024/04/08 08:30:24;;;;;;;7.07;2.90;;;;;;;24.62;47.24;157702.66;5475762;26;20861;-84
2024/04/08 08:32:54;;;;;;;4.90;2.97;;;;;;;24.64;47.10;157706.63;5501647;25;20843;-83
2024/04/08 08:35:22;;;;;;;10.50;2.80;;;;;;;24.69;45.53;157719.69;5508284;25;20534;-83
2024/04/08 08:37:47;;;;;;;5.40;2.80;;;;;;;24.68;44.87;157717.06;5512774;25;20460;-84
2024/04/08 08:40:15;;;;;;;11.60;2.90;;;;;;;24.65;45.25;157709.19;5508147;25;20502;-83
2024/04/08 08:42:44;;;;;;;11.40;3.03;;;;;;;24.70;44.50;157722.31;5508608;25;20284;-83
2024/04/08 08:45:14;;;;;;;7.37;2.67;;;;;;;24.76;46.10;157737.97;5440382;26;20545;-83
2024/04/08 08:47:39;;;;;;;8.80;2.90;;;;;;;24.81;46.45;157752.44;5437011;26;21071;-84
2024/04/08 08:50:08;;;;;;;6.40;2.73;;;;;;;24.83;46.54;157755.06;5496408;26;20502;-83
2024/04/08 08:52:34;;;;;;;6.87;2.50;;;;;;;24.77;43.56;157740.63;5495537;26;20248;-84
2024/04/08 08:55:02;;;;;;;9.07;3.43;;;;;;;24.85;41.70;157760.28;5469278;26;21832;-85
2024/04/08 08:57:29;;;;;;;5.23;2.60;;;;;;;24.91;40.41;157777.31;5499365;26;20248;-83
2024/04/08 09:00:01;;;;;;;6.40;3.30;;;;;;;25.04;39.08;157810.00;5436340;26;20463;-83
2024/04/08 09:02:26;;;;;;;11.17;3.30;;;;;;;25.12;40.15;157832.28;5465220;26;21045;-83
2024/04/08 09:04:55;;;;;;;8.10;2.90;;;;;;;25.16;40.91;157842.72;5460904;26;20460;-83
2024/04/08 09:07:21;;;;;;;9.50;3.20;;;;;;;25.16;37.74;157841.41;5458896;26;20260;-83
2024/04/08 09:09:55;;;;;;;8.40;2.97;;;;;;;25.20;37.15;157853.22;5498837;26;20814;-83
2024/04/08 09:12:21;;;;;;;7.83;2.20;;;;;;;25.22;36.87;157858.44;5491788;26;20473;-84
2024/04/08 09:14:51;;;;;;;5.00;2.90;;;;;;;25.21;35.83;157854.47;5464867;26;20516;-83
2024/04/08 09:17:20;;;;;;;7.20;2.50;;;;;;;25.20;36.02;157853.22;5485941;26;20252;-83
2024/04/08 09:19:49;;;;;;;9.57;2.87;;;;;;;25.24;36.71;157862.34;5461868;26;20515;-83
2024/04/08 09:22:14;;;;;;;3.70;2.30;;;;;;;25.22;37.08;157858.44;5491111;26;20514;-83
2024/04/08 09:24:43;;;;;;;4.17;2.27;;;;;;;25.24;41.48;157863.66;5460622;26;20473;-83
2024/04/08 09:27:09;;;;;;;7.70;2.57;;;;;;;25.21;37.61;157854.47;5498212;26;20243;-83
2024/04/08 09:29:37;;;;;;;11.40;2.60;;;;;;;25.26;37.75;157867.56;5464335;26;20462;-83
2024/04/08 09:32:03;;;;;;;5.80;2.40;;;;;;;25.23;35.45;157861.03;5493968;26;20250;-83
2024/04/08 09:34:34;;;;;;;4.27;2.10;;;;;;;25.21;35.40;157854.47;5465050;26;20476;-83
2024/04/08 09:37:00;;;;;;;5.10;2.40;;;;;;;25.30;36.69;157879.38;5498628;26;20485;-83
2024/04/08 09:39:29;;;;;;;6.63;2.70;;;;;;;25.31;34.87;157881.97;5489644;26;20457;-84
2024/04/08 09:41:56;;;;;;;4.20;2.83;;;;;;;25.31;36.80;157881.97;5434363;26;20905;-83
2024/04/08 09:44:30;;;;;;;8.27;3.00;;;;;;;25.20;36.82;157853.22;5463235;26;20469;-83
2024/04/08 09:46:56;;;;;;;11.43;2.80;;;;;;;25.20;37.13;157853.22;5458608;26;20473;-84
2024/04/08 09:49:24;;;;;;;5.80;2.77;;;;;;;25.21;36.88;157855.81;5495038;26;20546;-83
2024/04/08 09:51:54;;;;;;;9.83;2.93;;;;;;;25.29;37.02;157876.75;5489901;26;20469;-84
2024/04/08 09:54:22;;;;;;;7.83;3.10;;;;;;;25.32;37.46;157883.28;5465299;26;20565;-83
2024/04/08 09:56:49;;;;;;;8.20;2.90;;;;;;;25.33;36.88;157887.22;5491832;26;20510;-84
2024/04/08 09:59:21;;;;;;;4.70;2.60;;;;;;;25.32;36.69;157884.59;5455761;26;20474;-84
2024/04/08 10:01:47;;;;;;;6.53;2.70;;;;;;;25.22;35.99;157857.13;5457685;26;20515;-84
2024/04/08 10:04:18;;;;;;;10.37;2.80;;;;;;;24.94;37.06;157783.84;5470033;26;20807;-84
2024/04/08 10:06:44;;;;;;;7.47;3.00;;;;;;;24.91;36.47;157777.31;5493876;26;20501;-83
2024/04/08 10:09:15;;;;;;;7.30;2.90;;;;;;;25.05;35.45;157812.59;5432899;26;20464;-83
2024/04/08 10:11:44;;;;;;;9.20;3.67;;;;;;;25.20;36.36;157853.22;5490961;26;20253;-83
2024/04/08 10:14:18;;;;;;;8.03;2.40;;;;;;;25.26;34.46;157868.88;5493567;26;20512;-83
2024/04/08 10:16:43;;;;;;;5.47;2.63;;;;;;;25.39;36.08;157902.91;5437570;26;20472;-83
2024/04/08 10:19:13;;;;;;;6.97;2.43;;;;;;;25.46;36.23;157920.00;5493698;26;20822;-83
2024/04/08 10:21:38;;;;;;;7.20;2.23;;;;;;;25.51;34.64;157931.75;5493159;26;20354;-83
2024/04/08 10:24:07;;;;;;;6.67;2.70;;;;;;;25.43;31.45;157912.09;5458858;26;20966;-83
2024/04/08 10:26:36;;;;;;;3.43;1.67;;;;;;;25.49;31.70;157927.84;5489870;26;20260;-84
2024/04/08 10:29:07;;;;;;;3.33;2.17;;;;;;;25.51;30.38;157931.75;5466507;26;20569;-84
2024/04/08 10:31:33;;;;;;;5.43;2.30;;;;;;;25.52;29.29;157934.41;5435398;26;20659;-84
2024/04/08 10:34:01;;;;;;;4.80;2.20;;;;;;;25.56;29.57;157944.84;5488435;26;20486;-84
2024/04/08 10:36:27;;;;;;;10.67;1.93;;;;;;;25.53;28.66;157936.97;5462955;26;20248;-83
2024/04/08 10:38:55;;;;;;;4.60;2.30;;;;;;;25.50;29.61;157929.13;5495687;26;21008;-83
2024/04/08 10:41:21;;;;;;;7.80;1.90;;;;;;;25.62;30.25;157960.56;5492577;26;21377;-83
2024/04/08 10:43:51;;;;;;;5.47;2.30;;;;;;;25.65;32.51;157969.75;5491702;26;20470;-84
2024/04/08 10:46:18;;;;;;;5.60;2.40;;;;;;;25.67;28.58;157974.97;5459858;26;20245;-84
2024/04/08 10:48:46;;;;;;;8.87;3.00;;;;;;;25.81;27.94;158010.31;5495181;26;20520;-84
2024/04/08 10:51:12;;;;;;;20.23;2.30;;;;;;;25.86;31.07;158023.41;5488535;26;20458;-84
2024/04/08 10:53:42;;;;;;;7.10;2.33;;;;;;;25.79;30.72;158005.03;5489267;26;20556;-84
2024/04/08 10:56:07;;;;;;;6.53;2.40;;;;;;;25.74;30.49;157991.97;5459440;26;20465;-84
2024/04/08 10:58:36;;;;;;;6.17;2.07;;;;;;;25.76;32.66;157997.22;5458167;26;20472;-84
2024/04/08 11:01:05;;;;;;;3.97;2.10;;;;;;;25.77;31.48;158001.13;5457121;26;20557;-84
2024/04/08 11:03:33;;;;;;;7.00;2.67;;;;;;;25.75;30.26;157994.59;5490941;26;20513;-84
2024/04/08 11:05:59;;;;;;;7.43;2.03;;;;;;;25.81;29.77;158011.63;5458403;26;20854;-84
2024/04/08 11:08:27;;;;;;;4.87;2.43;;;;;;;25.88;29.57;158028.63;5451253;26;20579;-84
2024/04/08 11:10:53;;;;;;;9.10;2.40;;;;;;;25.87;28.56;158027.31;5481289;26;20287;-83
2024/04/08 11:13:21;;;;;;;8.33;2.20;;;;;;;25.90;28.58;158035.19;5457888;26;20478;-84
2024/04/08 11:15:47;;;;;;;6.40;2.27;;;;;;;25.98;28.52;158056.13;5492595;26;20240;-84
2024/04/08 11:18:21;;;;;;;8.10;2.73;;;;;;;26.02;27.84;158065.31;5482140;26;20474;-84
2024/04/08 11:20:46;;;;;;;5.43;2.07;;;;;;;26.01;28.21;158062.66;5486776;26;20988;-83
2024/04/08 11:23:19;;;;;;;6.13;2.40;;;;;;;26.02;28.82;158066.63;5429540;26;20476;-83
2024/04/08 11:25:45;;;;;;;6.37;2.13;;;;;;;26.08;29.38;158079.72;5482326;26;20256;-84